createdAt,value
2019-01-02T00:00:04.941Z,2.20
2019-01-02T00:01:04.380Z,2.20
2019-01-02T00:02:05.147Z,2.20
2019-01-02T00:03:05.205Z,2.30
2019-01-02T00:04:04.845Z,2.20
2019-01-02T00:05:04.808Z,2.20
2019-01-02T00:06:04.501Z,2.20
2019-01-02T00:07:04.534Z,2.20
2019-01-02T00:08:04.883Z,2.20
2019-01-02T00:09:04.994Z,2.20
2019-01-02T00:10:04.989Z,2.20
2019-01-02T00:11:05.130Z,2.20
2019-01-02T00:12:04.817Z,2.20
2019-01-02T00:13:05.021Z,2.20
2019-01-02T00:14:04.882Z,2.20
2019-01-02T00:15:04.850Z,2.20
2019-01-02T00:16:04.991Z,2.10
2019-01-02T00:17:04.668Z,2.10
2019-01-02T00:18:04.944Z,2.10
2019-01-02T00:19:04.234Z,2.10
2019-01-02T00:20:04.958Z,2.10
2019-01-02T00:21:04.345Z,2.10
2019-01-02T00:22:04.842Z,2.10
2019-01-02T00:23:04.988Z,2.10
2019-01-02T00:24:04.433Z,2.10
2019-01-02T00:25:05.074Z,2.00
2019-01-02T00:26:04.402Z,2.00
2019-01-02T00:27:04.592Z,2.10
2019-01-02T00:28:04.324Z,2.10
2019-01-02T00:29:09.328Z,2.00
2019-01-02T00:30:04.770Z,2.00
2019-01-02T00:31:04.236Z,2.00
2019-01-02T00:32:04.542Z,2.00
2019-01-02T00:33:04.271Z,2.00
2019-01-02T00:34:04.298Z,2.00
2019-01-02T00:35:04.398Z,2.00
2019-01-02T00:36:04.851Z,2.00
2019-01-02T00:37:04.548Z,2.00
2019-01-02T00:38:05.070Z,2.00
2019-01-02T00:39:04.340Z,2.00
2019-01-02T00:40:04.445Z,2.00
2019-01-02T00:41:04.933Z,2.00
2019-01-02T00:42:05.116Z,2.00
2019-01-02T00:43:04.706Z,2.00
2019-01-02T00:44:04.750Z,2.00
2019-01-02T00:45:04.155Z,2.00
2019-01-02T00:46:04.824Z,2.00
2019-01-02T00:47:05.045Z,2.00
2019-01-02T00:48:05.155Z,2.00
2019-01-02T00:49:09.809Z,2.10
2019-01-02T00:50:04.326Z,2.10
2019-01-02T00:51:04.985Z,2.10
2019-01-02T00:52:04.446Z,2.10
2019-01-02T00:53:05.129Z,2.10
2019-01-02T00:54:05.020Z,2.10
2019-01-02T00:55:04.391Z,2.10
2019-01-02T00:56:04.434Z,2.10
2019-01-02T00:57:04.770Z,2.10
2019-01-02T00:58:05.279Z,2.10
2019-01-02T00:59:04.956Z,2.10
2019-01-02T01:00:04.989Z,2.10
2019-01-02T01:01:04.688Z,2.10
2019-01-02T01:02:05.213Z,2.10
2019-01-02T01:03:05.188Z,2.10
2019-01-02T01:04:05.079Z,2.10
2019-01-02T01:05:05.202Z,2.10
2019-01-02T01:06:05.176Z,2.10
2019-01-02T01:07:04.282Z,2.10
2019-01-02T01:08:04.922Z,2.10
2019-01-02T01:09:04.898Z,2.10
2019-01-02T01:10:04.312Z,2.10
2019-01-02T01:11:04.860Z,2.10
2019-01-02T01:12:04.407Z,2.10
2019-01-02T01:13:04.684Z,2.10
2019-01-02T01:14:04.272Z,2.10
2019-01-02T01:15:04.360Z,2.10
2019-01-02T01:16:04.948Z,2.20
2019-01-02T01:17:05.195Z,2.10
2019-01-02T01:18:04.442Z,2.10
2019-01-02T01:19:05.115Z,2.10
2019-01-02T01:20:05.081Z,2.20
2019-01-02T01:21:04.702Z,2.20
2019-01-02T01:22:04.807Z,2.20
2019-01-02T01:23:04.562Z,2.20
2019-01-02T01:24:04.376Z,2.20
2019-01-02T01:25:04.815Z,2.20
2019-01-02T01:26:04.806Z,2.20
2019-01-02T01:27:04.589Z,2.20
2019-01-02T01:28:05.194Z,2.20
2019-01-02T01:29:09.289Z,2.20
2019-01-02T01:30:04.382Z,2.20
2019-01-02T01:31:04.561Z,2.20
2019-01-02T01:32:04.509Z,2.20
2019-01-02T01:33:04.218Z,2.20
2019-01-02T01:34:04.624Z,2.20
2019-01-02T01:35:04.802Z,2.20
2019-01-02T01:36:04.958Z,2.10
2019-01-02T01:37:05.010Z,2.10
2019-01-02T01:38:05.498Z,2.20
2019-01-02T01:39:04.999Z,2.10
2019-01-02T01:40:04.462Z,2.10
2019-01-02T01:41:05.492Z,2.10
2019-01-02T01:42:04.278Z,2.10
2019-01-02T01:43:04.324Z,2.10
2019-01-02T01:44:04.994Z,2.10
2019-01-02T01:45:05.028Z,2.10
2019-01-02T01:46:04.903Z,2.10
2019-01-02T01:47:04.810Z,2.20
2019-01-02T01:48:04.199Z,2.20
2019-01-02T01:49:09.445Z,2.10
2019-01-02T01:50:04.578Z,2.20
2019-01-02T01:51:04.836Z,2.20
2019-01-02T01:52:04.354Z,2.20
2019-01-02T01:53:05.028Z,2.20
2019-01-02T01:54:05.476Z,2.20
2019-01-02T01:55:04.817Z,2.20
2019-01-02T01:56:05.061Z,2.20
2019-01-02T01:57:04.479Z,2.20
2019-01-02T01:58:05.095Z,2.20
2019-01-02T01:59:04.499Z,2.20
2019-01-02T02:00:04.645Z,2.20
2019-01-02T02:01:04.255Z,2.20
2019-01-02T02:02:04.332Z,2.20
2019-01-02T02:03:04.724Z,2.20
2019-01-02T02:04:04.633Z,2.20
2019-01-02T02:05:04.652Z,2.20
2019-01-02T02:06:04.740Z,2.30
2019-01-02T02:07:04.384Z,2.20
2019-01-02T02:08:04.580Z,2.30
2019-01-02T02:09:04.892Z,2.30
2019-01-02T02:10:04.451Z,2.30
2019-01-02T02:11:04.769Z,2.30
2019-01-02T02:12:05.043Z,2.30
2019-01-02T02:13:04.669Z,2.30
2019-01-02T02:14:04.951Z,2.30
2019-01-02T02:15:04.462Z,2.30
2019-01-02T02:16:04.413Z,2.30
2019-01-02T02:17:04.383Z,2.30
2019-01-02T02:18:05.042Z,2.30
2019-01-02T02:19:04.640Z,2.30
2019-01-02T02:20:04.828Z,2.30
2019-01-02T02:21:04.666Z,2.30
2019-01-02T02:22:04.844Z,2.30
2019-01-02T02:23:04.812Z,2.30
2019-01-02T02:24:04.755Z,2.30
2019-01-02T02:25:04.366Z,2.30
2019-01-02T02:26:04.737Z,2.30
2019-01-02T02:27:05.016Z,2.30
2019-01-02T02:28:05.189Z,2.30
2019-01-02T02:29:10.245Z,2.30
2019-01-02T02:30:04.568Z,2.30
2019-01-02T02:31:04.622Z,2.30
2019-01-02T02:32:04.440Z,2.30
2019-01-02T02:33:04.645Z,2.30
2019-01-02T02:34:05.016Z,2.30
2019-01-02T02:35:04.259Z,2.30
2019-01-02T02:36:04.463Z,2.30
2019-01-02T02:37:04.225Z,2.30
2019-01-02T02:38:04.385Z,2.30
2019-01-02T02:39:04.823Z,2.30
2019-01-02T02:40:04.351Z,2.30
2019-01-02T02:41:04.459Z,2.30
2019-01-02T02:42:04.216Z,2.30
2019-01-02T02:43:04.992Z,2.30
2019-01-02T02:44:04.859Z,2.30
2019-01-02T02:45:04.687Z,2.30
2019-01-02T02:46:04.686Z,2.40
2019-01-02T02:47:04.682Z,2.40
2019-01-02T02:48:04.885Z,2.40
2019-01-02T02:49:04.634Z,2.40
2019-01-02T02:50:04.232Z,2.40
2019-01-02T02:51:04.508Z,2.40
2019-01-02T02:52:05.199Z,2.40
2019-01-02T02:53:04.257Z,2.40
2019-01-02T02:54:05.949Z,2.40
2019-01-02T02:55:04.179Z,2.40
2019-01-02T02:56:04.837Z,2.40
2019-01-02T02:57:04.889Z,2.40
2019-01-02T02:58:04.286Z,2.40
2019-01-02T02:59:04.282Z,2.40
2019-01-02T03:00:04.994Z,2.40
2019-01-02T03:01:05.135Z,2.40
2019-01-02T03:02:04.829Z,2.40
2019-01-02T03:03:04.636Z,2.40
2019-01-02T03:04:04.659Z,2.40
2019-01-02T03:05:04.446Z,2.40
2019-01-02T03:06:05.183Z,2.40
2019-01-02T03:07:04.650Z,2.40
2019-01-02T03:08:05.164Z,2.40
2019-01-02T03:09:04.888Z,2.40
2019-01-02T03:10:04.340Z,2.40
2019-01-02T03:11:05.005Z,2.40
2019-01-02T03:12:04.834Z,2.40
2019-01-02T03:13:04.547Z,2.40
2019-01-02T03:14:04.338Z,2.40
2019-01-02T03:15:04.978Z,2.40
2019-01-02T03:16:04.983Z,2.40
2019-01-02T03:17:04.836Z,2.40
2019-01-02T03:18:04.931Z,2.40
2019-01-02T03:19:04.694Z,2.40
2019-01-02T03:20:04.435Z,2.40
2019-01-02T03:21:04.515Z,2.40
2019-01-02T03:22:04.774Z,2.40
2019-01-02T03:23:05.009Z,2.40
2019-01-02T03:24:04.814Z,2.40
2019-01-02T03:25:04.873Z,2.40
2019-01-02T03:26:04.636Z,2.40
2019-01-02T03:27:04.508Z,2.40
2019-01-02T03:28:05.347Z,2.40
2019-01-02T03:29:09.218Z,2.40
2019-01-02T03:30:05.160Z,2.40
2019-01-02T03:31:04.841Z,2.40
2019-01-02T03:32:04.462Z,2.40
2019-01-02T03:33:05.145Z,2.40
2019-01-02T03:34:04.348Z,2.40
2019-01-02T03:35:04.850Z,2.40
2019-01-02T03:36:04.976Z,2.40
2019-01-02T03:37:05.052Z,2.40
2019-01-02T03:38:05.115Z,2.40
2019-01-02T03:39:04.359Z,2.40
2019-01-02T03:40:04.675Z,2.40
2019-01-02T03:41:04.702Z,2.40
2019-01-02T03:42:04.358Z,2.40
2019-01-02T03:43:04.595Z,2.40
2019-01-02T03:44:04.591Z,2.40
2019-01-02T03:45:04.905Z,2.50
2019-01-02T03:46:05.067Z,2.50
2019-01-02T03:47:05.053Z,2.50
2019-01-02T03:48:05.082Z,2.50
2019-01-02T03:49:10.243Z,2.50
2019-01-02T03:50:04.617Z,2.50
2019-01-02T03:51:05.034Z,2.50
2019-01-02T03:52:04.627Z,2.50
2019-01-02T03:53:04.187Z,2.50
2019-01-02T03:54:04.215Z,2.40
2019-01-02T03:55:04.766Z,2.50
2019-01-02T03:56:04.376Z,2.50
2019-01-02T03:57:04.504Z,2.50
2019-01-02T03:58:04.444Z,2.50
2019-01-02T03:59:04.646Z,2.40
2019-01-02T04:00:04.609Z,2.40
2019-01-02T04:01:04.167Z,2.40
2019-01-02T04:02:04.337Z,2.40
2019-01-02T04:03:04.271Z,2.40
2019-01-02T04:04:04.408Z,2.40
2019-01-02T04:05:04.738Z,2.40
2019-01-02T04:06:04.808Z,2.40
2019-01-02T04:07:04.761Z,2.40
2019-01-02T04:08:04.766Z,2.40
2019-01-02T04:09:04.879Z,2.40
2019-01-02T04:10:04.776Z,2.40
2019-01-02T04:11:04.927Z,2.40
2019-01-02T04:12:04.900Z,2.40
2019-01-02T04:13:04.498Z,2.30
2019-01-02T04:14:04.952Z,2.30
2019-01-02T04:15:04.949Z,2.40
2019-01-02T04:16:04.475Z,2.30
2019-01-02T04:17:04.775Z,2.30
2019-01-02T04:18:04.187Z,2.30
2019-01-02T04:19:04.523Z,2.30
2019-01-02T04:20:04.621Z,2.30
2019-01-02T04:21:04.682Z,2.30
2019-01-02T04:22:04.483Z,2.30
2019-01-02T04:23:04.771Z,2.30
2019-01-02T04:24:04.445Z,2.30
2019-01-02T04:25:04.433Z,2.30
2019-01-02T04:26:04.859Z,2.30
2019-01-02T04:27:04.263Z,2.30
2019-01-02T04:28:04.418Z,2.30
2019-01-02T04:29:09.622Z,2.30
2019-01-02T04:30:04.953Z,2.30
2019-01-02T04:31:04.521Z,2.30
2019-01-02T04:32:04.824Z,2.30
2019-01-02T04:33:05.013Z,2.30
2019-01-02T04:34:04.498Z,2.30
2019-01-02T04:35:05.096Z,2.30
2019-01-02T04:36:04.444Z,2.30
2019-01-02T04:37:04.633Z,2.30
2019-01-02T04:38:04.662Z,2.20
2019-01-02T04:39:04.669Z,2.20
2019-01-02T04:40:04.914Z,2.20
2019-01-02T04:41:04.917Z,2.20
2019-01-02T04:42:04.972Z,2.20
2019-01-02T04:43:04.589Z,2.20
2019-01-02T04:44:05.075Z,2.20
2019-01-02T04:45:05.146Z,2.20
2019-01-02T04:46:04.458Z,2.20
2019-01-02T04:47:04.539Z,2.20
2019-01-02T04:48:04.642Z,2.20
2019-01-02T04:49:09.965Z,2.10
2019-01-02T04:50:04.356Z,2.10
2019-01-02T04:51:04.594Z,2.10
2019-01-02T04:52:05.036Z,2.10
2019-01-02T04:53:05.125Z,2.10
2019-01-02T04:54:05.103Z,2.10
2019-01-02T04:55:04.402Z,2.10
2019-01-02T04:56:04.727Z,2.10
2019-01-02T04:57:04.812Z,2.10
2019-01-02T04:58:04.905Z,2.00
2019-01-02T04:59:05.026Z,2.00
2019-01-02T05:00:05.096Z,2.00
2019-01-02T05:01:04.475Z,2.00
2019-01-02T05:02:04.514Z,2.00
2019-01-02T05:03:04.636Z,2.00
2019-01-02T05:04:04.630Z,2.00
2019-01-02T05:05:04.732Z,2.00
2019-01-02T05:06:04.381Z,2.00
2019-01-02T05:07:04.392Z,2.00
2019-01-02T05:08:04.477Z,2.00
2019-01-02T05:09:04.487Z,2.00
2019-01-02T05:10:05.056Z,1.90
2019-01-02T05:11:04.210Z,2.00
2019-01-02T05:12:04.348Z,1.90
2019-01-02T05:13:04.811Z,1.90
2019-01-02T05:14:04.690Z,1.90
2019-01-02T05:15:04.314Z,1.90
2019-01-02T05:16:04.504Z,1.90
2019-01-02T05:17:04.563Z,1.90
2019-01-02T05:18:04.836Z,1.90
2019-01-02T05:19:05.175Z,1.90
2019-01-02T05:20:04.142Z,1.90
2019-01-02T05:21:04.212Z,1.90
2019-01-02T05:22:04.380Z,1.90
2019-01-02T05:23:04.448Z,1.80
2019-01-02T05:24:04.452Z,1.80
2019-01-02T05:25:05.178Z,1.80
2019-01-02T05:26:04.809Z,1.80
2019-01-02T05:27:04.305Z,1.80
2019-01-02T05:28:04.342Z,1.80
2019-01-02T05:29:04.587Z,1.80
2019-01-02T05:30:05.030Z,1.80
2019-01-02T05:31:05.084Z,1.80
2019-01-02T05:32:04.694Z,1.80
2019-01-02T05:33:04.691Z,1.80
2019-01-02T05:34:04.781Z,1.80
2019-01-02T05:35:04.896Z,1.80
2019-01-02T05:36:04.693Z,1.80
2019-01-02T05:37:05.027Z,1.90
2019-01-02T05:38:04.956Z,1.90
2019-01-02T05:39:09.996Z,1.80
2019-01-02T05:40:04.285Z,1.80
2019-01-02T05:41:04.612Z,1.80
2019-01-02T05:42:04.599Z,1.80
2019-01-02T05:43:05.144Z,1.80
2019-01-02T05:44:04.471Z,1.80
2019-01-02T05:45:04.335Z,1.80
2019-01-02T05:46:04.443Z,1.80
2019-01-02T05:47:04.918Z,1.80
2019-01-02T05:48:05.055Z,1.80
2019-01-02T05:49:04.320Z,1.80
2019-01-02T05:50:04.361Z,1.80
2019-01-02T05:51:04.446Z,1.80
2019-01-02T05:52:04.656Z,1.80
2019-01-02T05:53:04.660Z,1.80
2019-01-02T05:54:04.833Z,1.80
2019-01-02T05:55:04.807Z,1.80
2019-01-02T05:56:04.474Z,1.80
2019-01-02T05:57:04.541Z,1.80
2019-01-02T05:58:04.615Z,1.80
2019-01-02T05:59:04.666Z,1.80
2019-01-02T06:00:04.361Z,1.80
2019-01-02T06:01:04.671Z,1.80
2019-01-02T06:02:05.119Z,1.80
2019-01-02T06:03:04.629Z,1.80
2019-01-02T06:04:04.849Z,1.80
2019-01-02T06:05:05.052Z,1.80
2019-01-02T06:06:05.111Z,1.80
2019-01-02T06:07:04.570Z,1.80
2019-01-02T06:08:04.608Z,1.80
2019-01-02T06:09:04.615Z,1.80
2019-01-02T06:10:04.772Z,1.80
2019-01-02T06:11:05.158Z,1.80
2019-01-02T06:12:04.295Z,1.80
2019-01-02T06:13:04.271Z,1.80
2019-01-02T06:14:04.615Z,1.80
2019-01-02T06:15:04.919Z,1.80
2019-01-02T06:16:04.522Z,1.80
2019-01-02T06:17:04.570Z,1.80
2019-01-02T06:18:04.324Z,1.80
2019-01-02T06:19:04.572Z,1.80
2019-01-02T06:20:04.480Z,1.80
2019-01-02T06:21:04.558Z,1.80
2019-01-02T06:22:04.645Z,1.80
2019-01-02T06:23:04.907Z,1.80
2019-01-02T06:24:04.285Z,1.80
2019-01-02T06:25:04.399Z,1.80
2019-01-02T06:26:04.470Z,1.80
2019-01-02T06:27:04.525Z,1.80
2019-01-02T06:28:04.603Z,1.80
2019-01-02T06:29:04.689Z,1.80
2019-01-02T06:30:04.717Z,1.80
2019-01-02T06:31:04.893Z,1.80
2019-01-02T06:32:04.365Z,1.80
2019-01-02T06:33:04.762Z,1.80
2019-01-02T06:34:04.456Z,1.80
2019-01-02T06:35:04.460Z,1.80
2019-01-02T06:36:04.717Z,1.80
2019-01-02T06:37:05.040Z,1.80
2019-01-02T06:38:04.194Z,1.80
2019-01-02T06:39:04.253Z,1.80
2019-01-02T06:40:04.533Z,1.80
2019-01-02T06:41:04.872Z,1.80
2019-01-02T06:42:04.949Z,1.80
2019-01-02T06:43:04.819Z,1.80
2019-01-02T06:44:04.941Z,1.80
2019-01-02T06:45:04.293Z,1.80
2019-01-02T06:46:04.297Z,1.80
2019-01-02T06:47:04.364Z,1.90
2019-01-02T06:48:04.970Z,1.90
2019-01-02T06:49:04.394Z,1.90
2019-01-02T06:50:04.989Z,1.90
2019-01-02T06:51:04.546Z,1.90
2019-01-02T06:52:04.510Z,1.90
2019-01-02T06:53:04.719Z,1.80
2019-01-02T06:54:04.767Z,1.90
2019-01-02T06:55:04.874Z,1.90
2019-01-02T06:56:05.038Z,1.90
2019-01-02T06:57:05.086Z,1.80
2019-01-02T06:58:04.400Z,1.90
2019-01-02T06:59:04.466Z,1.80
2019-01-02T07:00:05.044Z,1.80
2019-01-02T07:01:04.561Z,1.80
2019-01-02T07:02:04.653Z,1.80
2019-01-02T07:03:04.741Z,1.80
2019-01-02T07:04:09.274Z,1.80
2019-01-02T07:05:04.638Z,1.80
2019-01-02T07:06:05.108Z,1.80
2019-01-02T07:07:04.835Z,1.80
2019-01-02T07:08:04.800Z,1.80
2019-01-02T07:09:04.938Z,1.80
2019-01-02T07:10:04.486Z,1.90
2019-01-02T07:11:04.486Z,1.90
2019-01-02T07:12:05.117Z,1.80
2019-01-02T07:13:04.642Z,1.80
2019-01-02T07:14:04.982Z,1.90
2019-01-02T07:15:04.479Z,1.90
2019-01-02T07:16:04.734Z,1.90
2019-01-02T07:17:05.268Z,1.90
2019-01-02T07:18:05.311Z,1.90
2019-01-02T07:19:04.278Z,1.90
2019-01-02T07:20:04.827Z,1.90
2019-01-02T07:21:04.296Z,1.90
2019-01-02T07:22:04.445Z,1.80
2019-01-02T07:23:05.092Z,1.90
2019-01-02T07:24:05.129Z,1.90
2019-01-02T07:25:04.239Z,1.90
2019-01-02T07:26:04.577Z,1.90
2019-01-02T07:27:04.554Z,1.80
2019-01-02T07:28:05.009Z,1.90
2019-01-02T07:29:04.335Z,1.90
2019-01-02T07:30:04.546Z,1.80
2019-01-02T07:31:05.197Z,1.80
2019-01-02T07:32:04.329Z,1.80
2019-01-02T07:33:04.921Z,1.80
2019-01-02T07:34:05.227Z,1.80
2019-01-02T07:35:04.375Z,1.80
2019-01-02T07:36:05.163Z,1.80
2019-01-02T07:37:05.225Z,1.80
2019-01-02T07:38:09.332Z,1.80
2019-01-02T07:39:04.804Z,1.80
2019-01-02T07:40:04.486Z,1.80
2019-01-02T07:41:05.039Z,1.80
2019-01-02T07:42:05.060Z,1.80
2019-01-02T07:43:04.739Z,1.80
2019-01-02T07:44:05.005Z,1.80
2019-01-02T07:45:05.040Z,1.70
2019-01-02T07:46:04.231Z,1.70
2019-01-02T07:47:04.329Z,1.80
2019-01-02T07:48:04.442Z,1.80
2019-01-02T07:49:04.390Z,1.80
2019-01-02T07:50:05.019Z,1.80
2019-01-02T07:51:05.032Z,1.80
2019-01-02T07:52:04.477Z,1.80
2019-01-02T07:53:05.224Z,1.80
2019-01-02T07:54:04.304Z,1.80
2019-01-02T07:55:04.864Z,1.80
2019-01-02T07:56:05.051Z,1.80
2019-01-02T07:57:04.554Z,1.80
2019-01-02T07:58:10.162Z,1.80
2019-01-02T07:59:04.676Z,1.90
2019-01-02T08:00:05.082Z,1.90
2019-01-02T08:01:04.310Z,1.90
2019-01-02T08:02:04.474Z,1.90
2019-01-02T08:03:04.518Z,1.90
2019-01-02T08:04:04.573Z,1.90
2019-01-02T08:05:05.130Z,1.90
2019-01-02T08:06:04.202Z,1.90
2019-01-02T08:07:04.322Z,1.90
2019-01-02T08:08:04.361Z,1.90
2019-01-02T08:09:04.541Z,1.90
2019-01-02T08:10:05.199Z,1.90
2019-01-02T08:11:04.303Z,1.90
2019-01-02T08:12:04.519Z,2.00
2019-01-02T08:13:04.641Z,2.00
2019-01-02T08:14:04.769Z,2.00
2019-01-02T08:15:04.370Z,2.00
2019-01-02T08:16:04.564Z,2.00
2019-01-02T08:17:05.062Z,2.00
2019-01-02T08:18:05.084Z,2.00
2019-01-02T08:19:05.142Z,2.00
2019-01-02T08:20:04.377Z,2.00
2019-01-02T08:21:04.440Z,2.00
2019-01-02T08:22:04.681Z,2.10
2019-01-02T08:23:04.823Z,2.10
2019-01-02T08:24:04.767Z,2.10
2019-01-02T08:25:04.783Z,2.10
2019-01-02T08:26:04.501Z,2.10
2019-01-02T08:27:05.037Z,2.10
2019-01-02T08:28:04.453Z,2.10
2019-01-02T08:29:09.507Z,2.10
2019-01-02T08:30:04.967Z,2.10
2019-01-02T08:31:04.722Z,2.10
2019-01-02T08:32:04.457Z,2.20
2019-01-02T08:33:04.943Z,2.20
2019-01-02T08:34:04.269Z,2.20
2019-01-02T08:35:05.196Z,2.20
2019-01-02T08:36:04.383Z,2.20
2019-01-02T08:37:04.612Z,2.20
2019-01-02T08:38:04.522Z,2.20
2019-01-02T08:39:04.617Z,2.20
2019-01-02T08:40:04.664Z,2.20
2019-01-02T08:41:04.755Z,2.20
2019-01-02T08:42:04.166Z,2.20
2019-01-02T08:43:04.394Z,2.30
2019-01-02T08:44:04.405Z,2.30
2019-01-02T08:45:05.160Z,2.30
2019-01-02T08:46:05.147Z,2.30
2019-01-02T08:47:04.385Z,2.30
2019-01-02T08:48:04.769Z,2.30
2019-01-02T08:49:10.197Z,2.30
2019-01-02T08:50:04.661Z,2.30
2019-01-02T08:51:04.995Z,2.30
2019-01-02T08:52:04.960Z,2.30
2019-01-02T08:53:05.086Z,2.30
2019-01-02T08:54:05.081Z,2.30
2019-01-02T08:55:04.759Z,2.30
2019-01-02T08:56:04.615Z,2.40
2019-01-02T08:57:04.840Z,2.40
2019-01-02T08:58:04.995Z,2.40
2019-01-02T08:59:04.335Z,2.40
2019-01-02T09:00:04.618Z,2.40
2019-01-02T09:01:04.705Z,2.40
2019-01-02T09:02:05.096Z,2.40
2019-01-02T09:03:05.140Z,2.40
2019-01-02T09:04:04.679Z,2.40
2019-01-02T09:05:04.839Z,2.40
2019-01-02T09:06:04.152Z,2.40
2019-01-02T09:07:04.199Z,2.40
2019-01-02T09:08:04.655Z,2.40
2019-01-02T09:09:04.741Z,2.40
2019-01-02T09:10:04.874Z,2.40
2019-01-02T09:11:04.377Z,2.40
2019-01-02T09:12:04.745Z,2.40
2019-01-02T09:13:04.810Z,2.50
2019-01-02T09:14:04.237Z,2.50
2019-01-02T09:15:04.851Z,2.50
2019-01-02T09:16:04.669Z,2.50
2019-01-02T09:17:04.392Z,2.50
2019-01-02T09:18:04.350Z,2.40
2019-01-02T09:19:04.859Z,2.40
2019-01-02T09:20:04.466Z,2.50
2019-01-02T09:21:04.627Z,2.50
2019-01-02T09:22:05.127Z,2.50
2019-01-02T09:23:04.445Z,2.50
2019-01-02T09:24:05.059Z,2.50
2019-01-02T09:25:05.273Z,2.50
2019-01-02T09:26:05.246Z,2.50
2019-01-02T09:27:04.316Z,2.50
2019-01-02T09:28:04.451Z,2.50
2019-01-02T09:29:09.893Z,2.50
2019-01-02T09:30:04.342Z,2.50
2019-01-02T09:31:05.106Z,2.50
2019-01-02T09:32:05.069Z,2.50
2019-01-02T09:33:05.147Z,2.50
2019-01-02T09:34:04.260Z,2.50
2019-01-02T09:35:04.921Z,2.50
2019-01-02T09:36:04.912Z,2.50
2019-01-02T09:37:04.912Z,2.50
2019-01-02T09:38:04.216Z,2.50
2019-01-02T09:39:04.451Z,2.50
2019-01-02T09:40:04.769Z,2.50
2019-01-02T09:41:04.812Z,2.50
2019-01-02T09:42:05.066Z,2.50
2019-01-02T09:43:05.019Z,2.50
2019-01-02T09:44:05.207Z,2.50
2019-01-02T09:45:04.257Z,2.50
2019-01-02T09:46:04.235Z,2.50
2019-01-02T09:47:04.326Z,2.50
2019-01-02T09:48:04.429Z,2.50
2019-01-02T09:49:04.936Z,2.50
2019-01-02T09:50:04.959Z,2.40
2019-01-02T09:51:05.285Z,2.40
2019-01-02T09:52:04.375Z,2.40
2019-01-02T09:53:04.515Z,2.50
2019-01-02T09:54:04.707Z,2.50
2019-01-02T09:55:04.900Z,2.50
2019-01-02T09:56:04.422Z,2.50
2019-01-02T09:57:04.483Z,2.50
2019-01-02T09:58:04.540Z,2.50
2019-01-02T09:59:05.328Z,2.50
2019-01-02T10:00:05.139Z,2.50
2019-01-02T10:01:04.605Z,2.50
2019-01-02T10:02:04.294Z,2.50
2019-01-02T10:03:04.273Z,2.50
2019-01-02T10:04:04.258Z,2.50
2019-01-02T10:05:04.383Z,2.50
2019-01-02T10:06:04.415Z,2.50
2019-01-02T10:07:04.518Z,2.50
2019-01-02T10:08:04.549Z,2.50
2019-01-02T10:09:04.730Z,2.50
2019-01-02T10:10:04.752Z,2.50
2019-01-02T10:11:04.315Z,2.50
2019-01-02T10:12:04.808Z,2.50
2019-01-02T10:13:04.723Z,2.50
2019-01-02T10:14:04.964Z,2.50
2019-01-02T10:15:05.112Z,2.50
2019-01-02T10:16:04.237Z,2.50
2019-01-02T10:17:05.010Z,2.50
2019-01-02T10:18:04.403Z,2.50
2019-01-02T10:19:04.526Z,2.50
2019-01-02T10:20:04.899Z,2.50
2019-01-02T10:21:04.845Z,2.50
2019-01-02T10:22:05.122Z,2.50
2019-01-02T10:23:05.162Z,2.60
2019-01-02T10:24:05.302Z,2.60
2019-01-02T10:25:04.651Z,2.60
2019-01-02T10:26:05.128Z,2.60
2019-01-02T10:27:04.343Z,2.60
2019-01-02T10:28:04.945Z,2.60
2019-01-02T10:29:10.050Z,2.60
2019-01-02T10:30:04.646Z,2.60
2019-01-02T10:31:05.030Z,2.60
2019-01-02T10:32:04.246Z,2.60
2019-01-02T10:33:04.319Z,2.60
2019-01-02T10:34:04.529Z,2.60
2019-01-02T10:35:04.578Z,2.60
2019-01-02T10:36:04.526Z,2.60
2019-01-02T10:37:04.577Z,2.60
2019-01-02T10:38:05.131Z,2.60
2019-01-02T10:39:04.385Z,2.60
2019-01-02T10:40:04.823Z,2.60
2019-01-02T10:41:04.665Z,2.60
2019-01-02T10:42:04.909Z,2.60
2019-01-02T10:43:05.156Z,2.60
2019-01-02T10:44:04.656Z,2.60
2019-01-02T10:45:04.734Z,2.60
2019-01-02T10:46:04.798Z,2.50
2019-01-02T10:47:04.221Z,2.60
2019-01-02T10:48:04.298Z,2.60
2019-01-02T10:49:04.843Z,2.60
2019-01-02T10:50:05.098Z,2.60
2019-01-02T10:51:04.574Z,2.60
2019-01-02T10:52:05.086Z,2.70
2019-01-02T10:53:04.215Z,2.70
2019-01-02T10:54:04.530Z,2.70
2019-01-02T10:55:04.535Z,2.70
2019-01-02T10:56:04.870Z,2.70
2019-01-02T10:57:04.645Z,2.70
2019-01-02T10:58:05.006Z,2.70
2019-01-02T10:59:04.867Z,2.70
2019-01-02T11:00:05.604Z,2.70
2019-01-02T11:01:04.239Z,2.70
2019-01-02T11:02:04.236Z,2.60
2019-01-02T11:03:09.881Z,2.60
2019-01-02T11:04:04.427Z,2.60
2019-01-02T11:05:04.391Z,2.50
2019-01-02T11:06:04.328Z,2.50
2019-01-02T11:07:04.675Z,2.50
2019-01-02T11:08:05.066Z,2.40
2019-01-02T11:09:05.110Z,2.40
2019-01-02T11:10:05.094Z,2.40
2019-01-02T11:11:04.502Z,2.30
2019-01-02T11:12:04.657Z,2.30
2019-01-02T11:13:04.741Z,2.30
2019-01-02T11:14:04.890Z,2.10
2019-01-02T11:15:04.639Z,2.00
2019-01-02T11:16:05.213Z,1.90
2019-01-02T11:17:04.549Z,1.70
2019-01-02T11:18:04.483Z,1.70
2019-01-02T11:19:05.099Z,1.50
2019-01-02T11:20:04.233Z,1.30
2019-01-02T11:21:04.531Z,1.20
2019-01-02T11:22:04.492Z,1.10
2019-01-02T11:23:04.641Z,1.00
2019-01-02T11:24:05.120Z,0.90
2019-01-02T11:25:04.712Z,0.80
2019-01-02T11:26:04.969Z,0.70
2019-01-02T11:27:04.451Z,0.60
2019-01-02T11:28:04.446Z,0.40
2019-01-02T11:29:04.943Z,0.30
2019-01-02T11:30:05.047Z,0.20
2019-01-02T11:31:04.469Z,0.10
2019-01-02T11:32:04.386Z,0.10
2019-01-02T11:33:04.555Z,0.00
2019-01-02T11:34:04.260Z,0.00
2019-01-02T11:35:04.416Z,0.00
2019-01-02T11:36:04.735Z,0.10
2019-01-02T11:37:09.926Z,0.00
2019-01-02T11:38:04.303Z,0.10
2019-01-02T11:39:04.649Z,0.10
2019-01-02T11:40:04.780Z,0.10
2019-01-02T11:41:04.981Z,0.10
2019-01-02T11:42:04.939Z,0.10
2019-01-02T11:43:04.992Z,0.10
2019-01-02T11:44:05.148Z,0.20
2019-01-02T11:45:04.556Z,0.20
2019-01-02T11:46:04.665Z,0.20
2019-01-02T11:47:04.926Z,0.30
2019-01-02T11:48:04.861Z,0.30
2019-01-02T11:49:05.154Z,0.30
2019-01-02T11:50:05.066Z,0.30
2019-01-02T11:51:04.419Z,0.40
2019-01-02T11:52:05.193Z,0.40
2019-01-02T11:53:04.573Z,0.40
2019-01-02T11:54:04.843Z,0.50
2019-01-02T11:55:05.044Z,0.50
2019-01-02T11:56:04.785Z,0.50
2019-01-02T11:57:10.062Z,0.50
2019-01-02T11:58:04.516Z,0.60
2019-01-02T11:59:04.589Z,0.60
2019-01-02T12:00:04.697Z,0.60
2019-01-02T12:01:04.642Z,0.70
2019-01-02T12:02:04.592Z,0.70
2019-01-02T12:03:04.657Z,0.80
2019-01-02T12:04:04.637Z,0.80
2019-01-02T12:05:05.111Z,0.90
2019-01-02T12:06:05.197Z,1.00
2019-01-02T12:07:04.337Z,1.00
2019-01-02T12:08:04.639Z,1.00
2019-01-02T12:09:04.604Z,1.10
2019-01-02T12:10:04.764Z,1.10
2019-01-02T12:11:04.513Z,1.20
2019-01-02T12:12:04.522Z,1.20
2019-01-02T12:13:04.834Z,1.20
2019-01-02T12:14:04.575Z,1.30
2019-01-02T12:15:04.804Z,1.30
2019-01-02T12:16:04.731Z,1.30
2019-01-02T12:17:04.969Z,1.30
2019-01-02T12:18:04.914Z,1.30
2019-01-02T12:19:05.144Z,1.40
2019-01-02T12:20:05.156Z,1.40
2019-01-02T12:21:04.719Z,1.40
2019-01-02T12:22:05.063Z,1.40
2019-01-02T12:23:05.128Z,1.40
2019-01-02T12:24:04.357Z,1.50
2019-01-02T12:25:04.520Z,1.50
2019-01-02T12:26:04.839Z,1.50
2019-01-02T12:27:05.173Z,1.50
2019-01-02T12:28:04.319Z,1.50
2019-01-02T12:29:04.377Z,1.50
2019-01-02T12:30:04.369Z,1.50
2019-01-02T12:31:04.458Z,1.50
2019-01-02T12:32:05.200Z,1.50
2019-01-02T12:33:05.117Z,1.50
2019-01-02T12:34:04.531Z,1.50
2019-01-02T12:35:04.606Z,1.50
2019-01-02T12:36:04.829Z,1.50
2019-01-02T12:37:04.743Z,1.40
2019-01-02T12:38:04.802Z,1.40
2019-01-02T12:39:05.059Z,1.40
2019-01-02T12:40:04.996Z,1.40
2019-01-02T12:41:04.313Z,1.40
2019-01-02T12:42:04.464Z,1.40
2019-01-02T12:43:04.510Z,1.40
2019-01-02T12:44:04.642Z,1.50
2019-01-02T12:45:05.140Z,1.40
2019-01-02T12:46:04.570Z,1.50
2019-01-02T12:47:04.714Z,1.50
2019-01-02T12:48:04.728Z,1.50
2019-01-02T12:49:04.192Z,1.50
2019-01-02T12:50:04.751Z,1.40
2019-01-02T12:51:04.384Z,1.50
2019-01-02T12:52:04.426Z,1.40
2019-01-02T12:53:04.911Z,1.50
2019-01-02T12:54:04.928Z,1.50
2019-01-02T12:55:04.345Z,1.40
2019-01-02T12:56:04.876Z,1.50
2019-01-02T12:57:05.008Z,1.50
2019-01-02T12:58:04.983Z,1.50
2019-01-02T12:59:04.548Z,1.50
2019-01-02T13:00:04.854Z,1.50
2019-01-02T13:01:05.284Z,1.50
2019-01-02T13:02:04.231Z,1.50
2019-01-02T13:03:04.290Z,1.50
2019-01-02T13:04:04.519Z,1.50
2019-01-02T13:05:04.813Z,1.50
2019-01-02T13:06:04.898Z,1.50
2019-01-02T13:07:05.199Z,1.50
2019-01-02T13:08:05.118Z,1.50
2019-01-02T13:09:04.332Z,1.50
2019-01-02T13:10:04.890Z,1.50
2019-01-02T13:11:05.026Z,1.50
2019-01-02T13:12:04.404Z,1.50
2019-01-02T13:13:04.600Z,1.60
2019-01-02T13:14:04.551Z,1.50
2019-01-02T13:15:04.900Z,1.50
2019-01-02T13:16:04.297Z,1.50
2019-01-02T13:17:04.430Z,1.50
2019-01-02T13:18:04.457Z,1.50